Sialkot, Pakistan
Current Conditions -  °F | °C
As of 1:00 AM on Thursday 27 Nov 2014 (Local Time) from VIAR Reporting Station
Haze Haze  
Wind Chill: 52°   Ceiling: Unl
Heat Index: 52°   Visibility: 0.93mi
Dew Point: 52°   Wind: 0mph
Humidity: 100%   Direction: NA
Pressure: 29.83"   Gusts: NA
Location:  32.52°N, 74.55°E
Report Text: VIAR 262000Z 00000KT 1500 BR NSC 11/11 Q1010
Loading
Personal Weather Stations






























Interactive Weather Map New forecast layout! Learn more

10-Day Weather Forecast

Advertisements
Track Severe Weather on mobile